Time;durP1;ratioP1;P1;durP2;ratioP2;P2;SDS_P1;SDS_P2;PMS_P1;PMS_P2;Temp;Humidity;BMP_temperature;BMP_pressure;BME280_temperature;BME280_humidity;BME280_pressure;Samples;Min_cycle;Max_cycle;Signal;HPM_P1;HPM_P2
2022/03/02 06:44:04;775872.00;2.59;1339.08;119567.00;0.40;207.34;;;;;7.10;1.00;;;;;;2471791;56;3851;31
2022/03/02 10:26:26;108899.00;0.36;188.93;0.00;0.00;0.62;;;;;10.90;1.00;;;;;;2510899;55;3942;31
2022/03/02 11:23:24;77673.00;0.26;135.02;0.00;0.00;0.62;;;;;12.60;1.00;;;;;;2505006;40;3487;31
2022/03/02 12:52:22;74246.00;0.25;129.10;0.00;0.00;0.62;;;;;11.30;1.00;;;;;;2088987;55;3629;-85
2022/03/02 12:54:50;508568.00;1.70;876.58;0.00;0.00;0.62;;;;;10.70;1.00;;;;;;2271272;61;1671;-85
2022/03/02 12:57:20;336828.00;1.12;581.22;0.00;0.00;0.62;;;;;10.60;1.00;;;;;;2272212;61;1621;-85
2022/03/02 12:59:48;464032.00;1.55;799.92;0.00;0.00;0.62;;;;;10.60;1.00;;;;;;2272203;61;1649;-85
2022/03/02 13:02:19;176625.00;0.59;305.68;0.00;0.00;0.62;;;;;10.80;1.00;;;;;;2272355;61;1469;-86
2022/03/02 13:05:00;908146.00;3.03;1570.43;102356.00;0.34;177.64;;;;;11.20;1.00;;;;;;2272298;61;1915;-86
2022/03/02 13:07:42;1077769.00;3.59;1870.71;87883.00;0.29;152.65;;;;;11.20;1.00;;;;;;2272310;61;1468;-85
2022/03/02 13:10:11;1316031.00;4.39;2301.47;107362.00;0.36;186.28;;;;;11.50;1.00;;;;;;2272283;61;1341;-85
2022/03/02 13:12:41;576801.00;1.92;994.18;84734.00;0.28;147.21;;;;;11.60;1.00;;;;;;2272118;61;1615;-86
2022/03/02 13:15:35;821900.00;2.74;1419.34;88512.00;0.30;153.74;;;;;11.80;1.00;;;;;;2272234;61;1494;-86
2022/03/02 13:18:17;144732480.00;482.44;122883464.00;65492.00;0.22;113.97;;;;;12.20;1.00;;;;;;2272305;61;1551;-86
2022/03/02 13:20:46;579627.00;1.93;999.06;79735.00;0.27;138.58;;;;;12.40;1.00;;;;;;2272247;61;1450;-87
2022/03/02 13:23:18;456583.00;1.52;787.11;90219.00;0.30;156.69;;;;;12.80;1.00;;;;;;2272160;61;1429;-85
2022/03/02 13:26:13;319999.00;1.07;552.30;0.00;0.00;0.62;;;;;12.50;1.00;;;;;;2272152;61;1923;-86
2022/03/02 13:29:00;649093.00;2.16;1119.07;105334.00;0.35;182.78;;;;;12.20;1.00;;;;;;2272137;61;1586;-86
2022/03/02 13:31:30;754230.00;2.51;1301.41;70597.00;0.24;122.79;;;;;12.30;1.00;;;;;;2272130;61;1393;-85
2022/03/02 13:34:08;408235.00;1.36;703.96;97460.00;0.32;169.19;;;;;12.20;1.00;;;;;;2272213;61;1608;-86
2022/03/02 13:36:38;349166.00;1.16;602.43;0.00;0.00;0.62;;;;;11.90;1.00;;;;;;2271997;61;1680;-86
2022/03/02 13:39:12;210960.00;0.70;364.79;0.00;0.00;0.62;;;;;11.30;1.00;;;;;;2272189;61;1557;-87
2022/03/02 13:41:47;600736.00;2.00;1035.49;123030.00;0.41;213.31;;;;;11.20;1.00;;;;;;2272242;61;1043;-87
2022/03/02 13:44:24;304031.00;1.01;524.85;0.00;0.00;0.62;;;;;11.20;1.00;;;;;;2272244;61;1917;-86
2022/03/02 13:47:18;296490.00;0.99;511.89;0.00;0.00;0.62;;;;;11.10;1.00;;;;;;2272207;61;1055;-85
2022/03/02 13:50:07;281673.00;0.94;486.41;0.00;0.00;0.62;;;;;10.90;1.00;;;;;;2272134;61;1153;-85
2022/03/02 13:53:00;476162.00;1.59;820.79;0.00;0.00;0.62;;;;;11.30;1.00;;;;;;2272163;61;1261;-86
2022/03/02 13:55:40;400469.00;1.33;690.61;0.00;0.00;0.62;;;;;11.40;1.00;;;;;;2270949;61;1211;-85
2022/03/02 13:58:28;373165.00;1.24;643.68;0.00;0.00;0.62;;;;;11.10;1.00;;;;;;2272165;61;1432;-86
2022/03/02 14:01:14;461921.00;1.54;796.29;0.00;0.00;0.62;;;;;10.90;1.00;;;;;;2272192;61;1192;-85
2022/03/02 14:03:46;431399.00;1.44;743.79;0.00;0.00;0.62;;;;;10.70;1.00;;;;;;2272131;61;1436;-85
2022/03/02 14:06:18;245127.00;0.82;423.57;0.00;0.00;0.62;;;;;10.60;1.00;;;;;;2272125;61;1941;-85
2022/03/02 14:08:48;330911.00;1.10;571.05;0.00;0.00;0.62;;;;;10.60;1.00;;;;;;2272227;61;1499;-85
2022/03/02 14:11:45;303064.00;1.01;523.19;0.00;0.00;0.62;;;;;11.00;1.00;;;;;;2271834;61;1587;-85
2022/03/02 14:14:15;571792.00;1.91;985.54;31070.00;0.10;54.44;;;;;11.10;1.00;;;;;;2265141;61;2174;-87
2022/03/02 14:16:56;681217.00;2.27;1174.68;4950.00;0.02;9.20;;;;;11.10;1.00;;;;;;2272041;61;1610;-85
2022/03/02 14:19:24;1851619.00;6.17;3323.97;157569.00;0.53;272.85;;;;;11.30;1.00;;;;;;2272073;61;1581;-85
2022/03/02 14:22:01;2496918.00;8.32;4699.60;208907.00;0.70;361.25;;;;;11.60;1.00;;;;;;2272071;61;2160;-84
2022/03/02 14:24:33;1429475.00;4.76;2511.10;112643.00;0.38;195.39;;;;;11.20;1.00;;;;;;2272045;61;2007;-85
2022/03/02 14:27:10;2156915.00;7.19;3951.66;189042.00;0.63;327.06;;;;;10.70;1.00;;;;;;2272043;61;1597;-87
2022/03/02 14:29:42;1511170.00;5.04;2664.16;152917.00;0.51;264.83;;;;;10.80;1.00;;;;;;2271580;61;1561;-85
2022/03/02 14:32:15;790441.00;2.63;1364.46;133226.00;0.44;230.89;;;;;11.30;1.00;;;;;;2271997;61;1608;-87
2022/03/02 14:34:53;700214.00;2.33;1207.61;80395.00;0.27;139.72;;;;;11.90;1.00;;;;;;2272080;61;1462;-86
2022/03/02 14:37:23;518563.00;1.73;893.79;83530.00;0.28;145.13;;;;;12.20;1.00;;;;;;2271929;61;1344;-86
2022/03/02 14:40:06;869825.00;2.90;1503.18;34296.00;0.11;60.02;;;;;12.00;1.00;;;;;;2272056;61;1636;-86
2022/03/02 14:42:40;133561240.00;445.20;96545016.00;0.00;0.00;0.62;;;;;11.50;1.00;;;;;;2272097;61;1328;-85
2022/03/02 14:45:17;358780.00;1.20;618.95;0.00;0.00;0.62;;;;;11.60;1.00;;;;;;2271885;61;1912;-86
2022/03/02 14:47:47;387157.00;1.29;667.73;0.00;0.00;0.62;;;;;12.00;1.00;;;;;;2271980;61;1442;-87
2022/03/02 14:50:21;384462.00;1.28;663.10;92967.00;0.31;161.43;;;;;12.80;1.00;;;;;;2272116;61;1042;-87
2022/03/02 14:52:57;448684.00;1.50;773.52;0.00;0.00;0.62;;;;;12.90;1.00;;;;;;2271989;61;1562;-86
2022/03/02 14:55:30;375937.00;1.25;648.44;0.00;0.00;0.62;;;;;12.70;1.00;;;;;;2272002;61;2168;-85
2022/03/02 14:58:01;474943.00;1.58;818.70;0.00;0.00;0.62;;;;;12.40;1.00;;;;;;2271935;61;1487;-87
2022/03/02 15:00:30;228238.00;0.76;394.52;0.00;0.00;0.62;;;;;12.00;1.00;;;;;;2272000;61;1549;-86
2022/03/02 15:02:58;457495.00;1.52;788.68;0.00;0.00;0.62;;;;;11.80;1.00;;;;;;2271870;61;1483;-86
2022/03/02 15:05:26;568488.00;1.89;979.84;97375.00;0.32;169.04;;;;;11.60;1.00;;;;;;2271833;61;1998;-87
2022/03/02 15:07:52;399995.00;1.33;689.80;39306.00;0.13;68.69;;;;;11.50;1.00;;;;;;2271916;61;1086;-87
2022/03/02 15:10:24;536204.00;1.79;924.18;0.00;0.00;0.62;;;;;11.70;1.00;;;;;;2271975;61;1016;-87
2022/03/02 15:15:39;975577.00;3.25;1689.26;52484.00;0.17;91.48;;;;;11.70;1.00;;;;;;2272823;61;611;-87
2022/03/02 15:18:12;641534.00;2.14;1105.99;95701.00;0.32;166.15;;;;;12.20;1.00;;;;;;2272776;61;995;-85
2022/03/02 15:20:40;623238.00;2.08;1074.36;131345.00;0.44;227.65;;;;;12.30;1.00;;;;;;2272710;61;1034;-89
2022/03/02 15:23:10;692744.00;2.31;1194.66;82001.00;0.27;142.49;;;;;11.70;1.00;;;;;;2272656;61;1272;-86
2022/03/02 15:25:38;847322.00;2.82;1463.78;27045.00;0.09;47.47;;;;;11.50;1.00;;;;;;2272553;61;2008;-87
2022/03/02 15:28:08;385764.00;1.29;665.33;0.00;0.00;0.62;;;;;11.20;1.00;;;;;;2272667;61;979;-87
2022/03/02 15:30:39;453931.00;1.51;782.54;0.00;0.00;0.62;;;;;11.30;1.00;;;;;;2272622;61;1574;-87
2022/03/02 15:33:07;470986.00;1.57;811.89;52685.00;0.18;91.83;;;;;11.60;1.00;;;;;;2272566;61;1481;-87
2022/03/02 15:35:37;269083.00;0.90;464.77;0.00;0.00;0.62;;;;;11.90;1.00;;;;;;2272635;61;980;-87
2022/03/02 15:38:12;386616.00;1.29;666.80;0.00;0.00;0.62;;;;;12.50;1.00;;;;;;2272526;61;1540;-87
2022/03/02 15:40:40;420624.00;1.40;725.26;0.00;0.00;0.62;;;;;12.30;1.00;;;;;;2272555;61;1626;-86
2022/03/02 15:43:09;127912.00;0.43;221.73;0.00;0.00;0.62;;;;;12.00;1.00;;;;;;2272445;61;1424;-87
2022/03/02 15:45:40;254625.00;0.85;439.91;0.00;0.00;0.62;;;;;11.80;1.00;;;;;;2272620;61;1988;-87
2022/03/02 15:48:13;1960633.00;6.54;3543.80;440781.00;1.47;759.93;;;;;11.80;1.00;;;;;;2272590;61;1065;-87
2022/03/02 15:50:43;1677583.00;5.59;2981.95;61457.00;0.20;107.00;;;;;11.70;1.00;;;;;;2272553;61;1457;-86
2022/03/02 15:53:12;1858239.00;6.19;3337.19;220754.00;0.74;381.64;;;;;11.70;1.00;;;;;;2272502;61;1312;-87
2022/03/02 15:55:41;2029297.00;6.76;3684.65;247871.00;0.83;428.29;;;;;11.40;1.00;;;;;;2272668;61;1106;-86
2022/03/02 15:58:12;1143596.00;3.81;1988.57;117553.00;0.39;203.86;;;;;11.20;1.00;;;;;;2272510;61;1122;-87
2022/03/02 16:00:43;756655.00;2.52;1305.63;86223.00;0.29;149.79;;;;;11.40;1.00;;;;;;2272577;61;1025;-87
2022/03/02 16:03:13;369709.00;1.23;637.74;0.00;0.00;0.62;;;;;11.80;1.00;;;;;;2272508;61;1406;-85
2022/03/02 16:05:45;431983.00;1.44;744.80;0.00;0.00;0.62;;;;;11.60;1.00;;;;;;2272506;61;1924;-87
2022/03/02 16:08:15;403158.00;1.34;695.23;32135.00;0.11;56.28;;;;;11.10;1.00;;;;;;2272511;61;1407;-86
2022/03/02 16:10:44;430665.00;1.44;742.53;0.00;0.00;0.62;;;;;10.80;1.00;;;;;;2272537;61;1057;-86
2022/03/02 16:13:15;322637.00;1.08;556.83;0.00;0.00;0.62;;;;;10.80;1.00;;;;;;2272416;61;1273;-87
2022/03/02 16:15:47;344995.00;1.15;595.26;0.00;0.00;0.62;;;;;10.90;1.00;;;;;;2272541;61;1026;-87
2022/03/02 16:18:16;1360131.00;4.53;2382.58;136245.00;0.45;236.10;;;;;11.30;1.00;;;;;;2272485;61;1180;-87
2022/03/02 16:20:44;1877247.00;6.26;3375.24;190023.00;0.63;328.75;;;;;11.10;1.00;;;;;;2272449;61;1110;-86
2022/03/02 16:23:14;1232098.00;4.11;2148.36;151325.00;0.50;262.09;;;;;11.00;1.00;;;;;;2272315;61;1536;-86
2022/03/02 16:25:47;938352.00;3.13;1623.58;141014.00;0.47;244.32;;;;;10.90;1.00;;;;;;2272365;61;1919;-86
2022/03/02 16:28:17;614701.00;2.05;1059.61;0.00;0.00;0.62;;;;;11.00;1.00;;;;;;2272393;61;1667;-86
2022/03/02 16:30:47;534852.00;1.78;921.85;0.00;0.00;0.62;;;;;11.10;1.00;;;;;;2272483;61;1083;-87
2022/03/02 16:33:15;345015.00;1.15;595.29;0.00;0.00;0.62;;;;;11.00;1.00;;;;;;2272363;61;1344;-86
2022/03/02 16:35:42;258757.00;0.86;447.01;0.00;0.00;0.62;;;;;11.00;1.00;;;;;;2272473;61;1131;-87
2022/03/02 16:38:11;594697.00;1.98;1025.06;29411.00;0.10;51.56;;;;;11.40;1.00;;;;;;2272452;61;2137;-87
2022/03/02 16:40:40;721740.00;2.41;1244.96;86620.00;0.29;150.47;;;;;11.50;1.00;;;;;;2272386;61;1134;-87
2022/03/02 16:43:08;119499568.00;398.33;69127096.00;0.00;0.00;0.62;;;;;11.30;1.00;;;;;;2272411;61;1400;-86
2022/03/02 16:45:36;404209.00;1.35;697.04;0.00;0.00;0.62;;;;;11.10;1.00;;;;;;2272180;61;1932;-86
2022/03/02 16:48:06;385104.00;1.28;664.20;0.00;0.00;0.62;;;;;11.00;1.00;;;;;;2272423;61;1042;-86
2022/03/02 16:50:34;617978.00;2.06;1065.27;0.00;0.00;0.62;;;;;10.80;1.00;;;;;;2272211;61;1654;-87
2022/03/02 16:53:02;422538.00;1.41;728.55;0.00;0.00;0.62;;;;;10.80;1.00;;;;;;2272178;61;1501;-87
2022/03/02 16:55:30;1615346.00;5.38;2862.10;65570.00;0.22;114.10;;;;;10.70;1.00;;;;;;2272404;61;1339;-86
2022/03/02 16:57:57;1595470.00;5.32;2824.08;177885.00;0.59;307.85;;;;;10.80;1.00;;;;;;2272297;61;1531;-88
2022/03/02 17:00:31;1236420.00;4.12;2156.21;108099.00;0.36;187.55;;;;;10.80;1.00;;;;;;2272322;61;1075;-88
2022/03/02 17:03:02;758376.00;2.53;1308.62;91452.00;0.30;158.81;;;;;10.30;1.00;;;;;;2272249;61;1566;-87
2022/03/02 17:05:32;682826.00;2.28;1177.47;84189.00;0.28;146.27;;;;;10.00;1.00;;;;;;2272366;61;1911;-88
2022/03/02 17:08:02;558138.00;1.86;961.99;0.00;0.00;0.62;;;;;9.50;1.00;;;;;;2272320;61;997;-87
2022/03/02 17:10:31;623403.00;2.08;1074.65;0.00;0.00;0.62;;;;;9.30;1.00;;;;;;2272358;61;1507;-87
2022/03/02 17:12:58;694194.00;2.31;1197.17;0.00;0.00;0.62;;;;;9.40;1.00;;;;;;2272131;61;1528;-87
2022/03/02 17:15:26;691754.00;2.31;1192.94;0.00;0.00;0.62;;;;;9.40;1.00;;;;;;2272266;61;1484;-87
2022/03/02 17:17:54;492317.00;1.64;848.60;0.00;0.00;0.62;;;;;9.70;1.00;;;;;;2272291;61;1502;-88
2022/03/02 17:20:21;624214.00;2.08;1076.05;19947.00;0.07;35.18;;;;;10.30;1.00;;;;;;2272312;61;1686;-87
2022/03/02 17:22:52;1011236.00;3.37;1752.38;125081.00;0.42;216.85;;;;;10.60;1.00;;;;;;2272224;61;1242;-86
2022/03/02 17:25:20;1845107.00;6.15;3310.98;158175.00;0.53;273.89;;;;;10.80;1.00;;;;;;2272278;61;1994;-87
2022/03/02 17:27:47;1360141.00;4.53;2382.60;52859.00;0.18;92.13;;;;;11.00;1.00;;;;;;2272317;61;1465;-87
2022/03/02 17:30:17;1495833.00;4.99;2635.28;122236.00;0.41;211.94;;;;;11.30;1.00;;;;;;2272365;61;1242;-86
2022/03/02 17:35:16;2975917.00;9.92;5858.67;139875.00;0.47;242.36;;;;;12.20;1.00;;;;;;2269407;61;1409;-88
2022/03/02 17:37:45;1847860.00;6.16;3316.47;119625.00;0.40;207.44;;;;;12.40;1.00;;;;;;2268167;61;1426;-87
2022/03/02 17:40:14;812868.00;2.71;1403.57;67789.00;0.23;117.94;;;;;11.00;1.00;;;;;;2268145;61;1562;-87
2022/03/02 17:42:41;904221.00;3.01;1563.53;83547.00;0.28;145.16;;;;;9.90;1.00;;;;;;2268151;61;1427;-87
2022/03/02 17:45:12;775111.00;2.58;1337.75;0.00;0.00;0.62;;;;;9.00;1.00;;;;;;2268153;61;1385;-87
2022/03/02 17:47:42;728304.00;2.43;1256.36;0.00;0.00;0.62;;;;;8.20;1.00;;;;;;2268149;61;1640;-86
2022/03/02 17:50:12;600456.00;2.00;1035.01;0.00;0.00;0.62;;;;;7.70;1.00;;;;;;2268113;61;899;-88
2022/03/02 17:52:40;675561.00;2.25;1164.88;0.00;0.00;0.62;;;;;7.70;1.00;;;;;;2268026;61;1364;-87
2022/03/02 17:55:09;881786.00;2.94;1524.15;100929.00;0.34;175.18;;;;;7.70;1.00;;;;;;2268011;61;1642;-87
2022/03/02 17:57:45;738446.00;2.46;1273.97;41039.00;0.14;71.69;;;;;7.60;1.00;;;;;;2268131;61;1505;-88
2022/03/02 18:00:18;732272.00;2.44;1263.25;46473.00;0.15;81.09;;;;;7.60;1.00;;;;;;2267678;61;1623;-87
2022/03/02 18:02:49;1009014.00;3.36;1748.44;87350.00;0.29;151.73;;;;;7.70;1.00;;;;;;2267944;61;1540;-88
2022/03/02 18:05:20;1809746.00;6.03;3240.71;82731.00;0.28;143.75;;;;;7.70;1.00;;;;;;2268053;61;1988;-86
2022/03/02 18:07:48;2088947.00;6.96;3808.59;100161.00;0.33;173.85;;;;;7.50;1.00;;;;;;2268056;61;1448;-87
2022/03/02 18:10:16;1312473.00;4.37;2294.95;169742.00;0.57;293.82;;;;;7.20;1.00;;;;;;2268182;61;1035;-87
2022/03/02 18:12:47;950028.00;3.17;1644.16;85217.00;0.28;148.05;;;;;7.40;1.00;;;;;;2268000;61;1661;-86
2022/03/02 18:15:17;1131839.00;3.77;1967.46;95615.00;0.32;166.00;;;;;7.90;1.00;;;;;;2268096;61;1642;-85
2022/03/02 18:17:47;781993.00;2.61;1349.74;0.00;0.00;0.62;;;;;8.30;1.00;;;;;;2268033;61;1444;-85
2022/03/02 18:20:18;861746.00;2.87;1489.03;0.00;0.00;0.62;;;;;8.80;1.00;;;;;;2268077;61;981;-86
2022/03/02 18:22:56;732443.00;2.44;1263.55;0.00;0.00;0.62;;;;;9.10;1.00;;;;;;2268056;61;1527;-87
2022/03/02 18:28:37;824124.00;2.75;1423.23;70953.00;0.24;123.41;;;;;9.10;1.00;;;;;;2267447;61;1229;-87
2022/03/02 18:31:20;865747.00;2.89;1496.04;104005.00;0.35;180.48;;;;;9.50;1.00;;;;;;2268025;61;1613;-87
2022/03/02 18:33:56;553915.00;1.85;954.71;0.00;0.00;0.62;;;;;9.90;1.00;;;;;;2268014;61;1536;-88
2022/03/02 18:36:42;671024.00;2.24;1157.03;0.00;0.00;0.62;;;;;10.20;1.00;;;;;;2267997;61;1450;-86
2022/03/02 18:39:22;456198.00;1.52;786.44;0.00;0.00;0.62;;;;;10.40;1.00;;;;;;2268034;61;1572;-87
2022/03/02 18:41:54;519950.00;1.73;896.18;0.00;0.00;0.62;;;;;10.60;1.00;;;;;;2267882;61;1546;-88
2022/03/02 18:47:13;807389.00;2.69;1394.01;34588.00;0.12;60.52;;;;;10.80;1.00;;;;;;2268475;61;1992;-87
2022/03/02 18:49:42;2013524.00;6.71;3652.13;155427.00;0.52;269.16;;;;;10.50;1.00;;;;;;2268784;61;1600;-88
2022/03/02 18:52:13;917041.00;3.06;1586.07;104620.00;0.35;181.55;;;;;10.80;1.00;;;;;;2268602;61;1489;-87
2022/03/02 18:55:06;659488.00;2.20;1137.05;89875.00;0.30;156.09;;;;;11.20;1.00;;;;;;2268733;61;1238;-87
2022/03/02 18:57:38;437221.00;1.46;753.80;0.00;0.00;0.62;;;;;11.70;1.00;;;;;;2268627;61;1668;-88
2022/03/02 19:00:15;530245.00;1.77;913.91;0.00;0.00;0.62;;;;;11.50;1.00;;;;;;2268536;61;1531;-88
2022/03/02 19:02:50;508243.00;1.69;876.02;0.00;0.00;0.62;;;;;11.30;1.00;;;;;;2268579;61;1467;-88
2022/03/02 19:05:44;636009.00;2.12;1096.44;13242.00;0.04;23.57;;;;;11.10;1.00;;;;;;2268716;61;1435;-87
2022/03/02 19:16:54;1815662.00;6.05;3252.43;88346.00;0.29;153.45;;;;;11.60;1.00;;;;;;2270531;61;1814;-91
2022/03/02 19:19:29;731484.00;2.44;1261.88;0.00;0.00;0.62;;;;;11.90;1.00;;;;;;2268495;61;1502;-89
2022/03/02 19:22:06;1364367.00;4.55;2390.40;156291.00;0.52;270.65;;;;;12.10;1.00;;;;;;2268650;61;1330;-88
2022/03/02 19:24:49;1496218.00;4.99;2636.01;137695.00;0.46;238.60;;;;;12.40;1.00;;;;;;2268632;61;1632;-90
2022/03/02 19:27:27;617982.00;2.06;1065.28;80960.00;0.27;140.70;;;;;12.50;1.00;;;;;;2268615;61;2000;-90
2022/03/02 19:30:09;656230.00;2.19;1131.42;85898.00;0.29;149.22;;;;;12.50;1.00;;;;;;2268640;61;1427;-90
2022/03/02 19:33:00;522635.00;1.74;900.80;0.00;0.00;0.62;;;;;12.50;1.00;;;;;;2268555;61;1417;-90
2022/03/02 19:35:48;519351.00;1.73;895.15;0.00;0.00;0.62;;;;;12.50;1.00;;;;;;2268665;61;1403;-89
2022/03/02 19:41:19;156399.00;0.52;270.83;0.00;0.00;0.62;;;;;12.80;1.00;;;;;;2268675;61;705;-89
2022/03/02 19:43:58;499883.00;1.67;861.62;0.00;0.00;0.62;;;;;12.60;1.00;;;;;;2268555;61;1535;-89
2022/03/02 19:46:40;452673.00;1.51;780.38;0.00;0.00;0.62;;;;;12.80;1.00;;;;;;2268422;61;1913;-90
2022/03/02 19:49:25;689072.00;2.30;1188.29;26790.00;0.09;47.03;;;;;12.70;1.00;;;;;;2268449;61;1422;-90
2022/03/02 19:52:10;423751.00;1.41;730.64;0.00;0.00;0.62;;;;;12.60;1.00;;;;;;2268505;61;1444;-92
2022/03/02 19:54:49;362689.00;1.21;625.67;0.00;0.00;0.62;;;;;12.30;1.00;;;;;;2268628;61;1564;-89
2022/03/02 19:57:30;585358.00;1.95;1008.94;11955.00;0.04;21.34;;;;;11.90;1.00;;;;;;2268376;61;1358;-91
2022/03/02 20:00:26;581474.00;1.94;1002.24;0.00;0.00;0.62;;;;;11.50;1.00;;;;;;2268522;61;1426;-91
2022/03/02 20:02:58;661369.00;2.20;1140.31;54886.00;0.18;95.64;;;;;11.50;1.00;;;;;;2268511;61;1592;-91
2022/03/02 20:05:30;513446.00;1.71;884.98;0.00;0.00;0.62;;;;;11.50;1.00;;;;;;2268446;61;1528;-88
2022/03/02 20:08:04;578557.00;1.93;997.21;12210.00;0.04;21.78;;;;;11.60;1.00;;;;;;2268463;61;2019;-89
2022/03/02 20:10:39;756788.00;2.52;1305.86;137958.00;0.46;239.05;;;;;11.20;1.00;;;;;;2268478;61;1452;-87
2022/03/02 20:13:21;338845.00;1.13;584.69;0.00;0.00;0.62;;;;;11.70;1.00;;;;;;2268137;61;2201;-89
2022/03/02 20:15:51;562791.00;1.88;970.01;0.00;0.00;0.62;;;;;12.00;1.00;;;;;;2268416;61;1416;-89
2022/03/02 20:18:20;350154.00;1.17;604.13;0.00;0.00;0.62;;;;;12.20;1.00;;;;;;2268497;61;1597;-90
2022/03/02 20:20:49;571633.00;1.91;985.26;0.00;0.00;0.62;;;;;12.20;1.00;;;;;;2268484;61;1086;-90
2022/03/02 20:23:21;464536.00;1.55;800.79;0.00;0.00;0.62;;;;;12.30;1.00;;;;;;2268331;61;1592;-89
2022/03/02 20:25:53;469192.00;1.56;808.80;0.00;0.00;0.62;;;;;12.20;1.00;;;;;;2268491;61;1691;-89
2022/03/02 20:28:54;629885.00;2.10;1085.85;0.00;0.00;0.62;;;;;12.20;1.00;;;;;;2268365;61;2013;-87
2022/03/02 20:34:05;620936.00;2.07;1070.38;43356.00;0.14;75.69;;;;;11.90;1.00;;;;;;2267940;61;1320;-87
2022/03/02 20:36:58;491315.00;1.64;846.87;0.00;0.00;0.62;;;;;11.50;1.00;;;;;;2268312;61;1616;-91
2022/03/02 20:39:29;637988.00;2.13;1099.86;26717.00;0.09;46.90;;;;;11.60;1.00;;;;;;2268414;61;1612;-90
2022/03/02 20:42:15;499798.00;1.67;861.48;0.00;0.00;0.62;;;;;11.40;1.00;;;;;;2268281;61;1277;-89
2022/03/02 20:45:03;1285318.00;4.28;2245.26;228950.00;0.76;395.74;;;;;11.60;1.00;;;;;;2268304;61;1421;-89
2022/03/02 20:47:43;467449.00;1.56;805.80;0.00;0.00;0.62;;;;;11.70;1.00;;;;;;2268258;61;1927;-89
2022/03/02 20:50:13;478114.00;1.59;824.15;0.00;0.00;0.62;;;;;11.70;1.00;;;;;;2268363;61;1430;-89
2022/03/02 20:52:46;506147.00;1.69;872.41;35783.00;0.12;62.59;;;;;11.90;1.00;;;;;;2268489;61;1388;-89
2022/03/02 20:55:22;525952.00;1.75;906.52;0.00;0.00;0.62;;;;;11.70;1.00;;;;;;2268376;61;1591;-90
2022/03/02 20:57:52;520819.00;1.74;897.68;0.00;0.00;0.62;;;;;11.50;1.00;;;;;;2268376;61;1039;-88
2022/03/02 21:00:22;440155.00;1.47;758.85;57682.00;0.19;100.47;;;;;11.30;1.00;;;;;;2268292;61;1379;-88
2022/03/02 21:02:55;457824.00;1.53;789.24;10802.00;0.04;19.34;;;;;11.50;1.00;;;;;;2268338;61;1281;-88
2022/03/02 21:05:28;539498.00;1.80;929.86;0.00;0.00;0.62;;;;;11.60;1.00;;;;;;2268317;61;1643;-89
2022/03/02 21:08:01;542205.00;1.81;934.52;0.00;0.00;0.62;;;;;11.60;1.00;;;;;;2268205;61;1994;-90
2022/03/02 21:10:32;291170.00;0.97;502.74;0.00;0.00;0.62;;;;;11.40;1.00;;;;;;2268305;61;2253;-90
2022/03/02 21:13:14;401069.00;1.34;691.64;19731.00;0.07;34.80;;;;;11.30;1.00;;;;;;2268253;61;1467;-89
2022/03/02 21:15:43;441229.00;1.47;760.70;0.00;0.00;0.62;;;;;10.50;1.00;;;;;;2268177;61;1603;-90
2022/03/02 21:18:28;738090.00;2.46;1273.36;0.00;0.00;0.62;;;;;9.70;1.00;;;;;;2268378;61;1092;-89
2022/03/02 21:21:11;;;;;;;;;;;;;;;;;;;;;
2022/03/02 21:23:50;1844321.00;6.15;3309.41;209679.00;0.70;362.58;;;;;8.60;1.00;;;;;;2268292;61;1368;-88
2022/03/02 21:26:30;2485002.00;8.28;4672.41;282677.00;0.94;488.14;;;;;9.20;1.00;;;;;;2268159;61;1931;-89
2022/03/02 21:29:07;2546278.00;8.49;4813.00;237465.00;0.79;410.39;;;;;9.10;1.00;;;;;;2268140;61;2139;-90
2022/03/02 21:31:43;1857456.00;6.19;3335.62;78820.00;0.26;137.00;;;;;9.70;1.00;;;;;;2268272;61;1389;-89
2022/03/02 21:34:25;2172130.00;7.24;3983.96;215457.00;0.72;372.53;;;;;10.20;1.00;;;;;;2268107;61;1578;-90
2022/03/02 21:36:59;2019489.00;6.73;3664.42;133421.00;0.44;231.23;;;;;9.80;1.00;;;;;;2268229;61;1577;-90
2022/03/02 21:39:37;2028643.00;6.76;3683.30;182793.00;0.61;316.30;;;;;10.00;1.00;;;;;;2268340;61;738;-89
2022/03/02 21:42:12;2182159.00;7.27;4005.31;242644.00;0.81;419.30;;;;;9.90;1.00;;;;;;2268198;61;1511;-89
2022/03/02 21:47:25;1928896.00;6.43;3479.33;254589.00;0.85;439.84;;;;;10.40;1.00;;;;;;2268090;61;1994;-89
2022/03/02 21:49:56;842736.00;2.81;1455.76;103097.00;0.34;178.92;;;;;10.60;1.00;;;;;;2267599;61;1717;-87
2022/03/02 21:52:23;1021882.00;3.41;1771.27;131551.00;0.44;228.00;;;;;10.40;1.00;;;;;;2267908;61;1377;-88
2022/03/02 21:55:02;769599.00;2.57;1328.15;0.00;0.00;0.62;;;;;10.20;1.00;;;;;;2268205;61;1162;-89
2022/03/02 22:00:56;1120749.00;3.74;1947.57;72005.00;0.24;125.22;;;;;10.00;1.00;;;;;;2267794;61;1019;-89
2022/03/02 22:03:30;1115242.00;3.72;1937.70;108906.00;0.36;188.94;;;;;10.30;1.00;;;;;;2267296;61;1632;-90
2022/03/02 22:06:14;793208.00;2.64;1369.28;89687.00;0.30;155.77;;;;;10.30;1.00;;;;;;2268033;61;1559;-88
2022/03/02 22:08:47;1065245.00;3.55;1848.38;129278.00;0.43;224.08;;;;;10.20;1.00;;;;;;2268092;61;1972;-89
2022/03/02 22:11:36;1058793.00;3.53;1836.89;85409.00;0.28;148.38;;;;;10.00;1.00;;;;;;2268098;61;1007;-88
2022/03/02 22:14:07;1157172.00;3.86;2012.98;147538.00;0.49;255.56;;;;;9.70;1.00;;;;;;2267978;61;1553;-88
2022/03/02 22:16:41;1193295.00;3.98;2078.10;116236.00;0.39;201.59;;;;;9.40;1.00;;;;;;2267995;61;1458;-89
2022/03/02 22:19:13;873246.00;2.91;1509.18;85033.00;0.28;147.73;;;;;8.90;1.00;;;;;;2268102;61;1450;-88
2022/03/02 22:21:47;809303.00;2.70;1397.35;21916.00;0.07;38.59;;;;;8.50;1.00;;;;;;2268071;61;1425;-89
2022/03/02 22:24:14;749898.00;2.50;1293.88;17836.00;0.06;31.52;;;;;9.20;1.00;;;;;;2268114;61;1379;-89
2022/03/02 22:26:46;826467.00;2.75;1427.32;0.00;0.00;0.62;;;;;9.40;1.00;;;;;;2268048;61;1980;-87
2022/03/02 22:29:17;779427.00;2.60;1345.27;0.00;0.00;0.62;;;;;9.40;1.00;;;;;;2268089;61;1542;-89
2022/03/02 22:31:53;553832.00;1.85;954.57;30170.00;0.10;52.88;;;;;9.80;1.00;;;;;;2268091;61;1714;-90
2022/03/02 22:34:23;623876.00;2.08;1075.46;0.00;0.00;0.62;;;;;10.10;1.00;;;;;;2268062;61;1516;-89
2022/03/02 22:36:56;758298.00;2.53;1308.49;0.00;0.00;0.62;;;;;9.90;1.00;;;;;;2268118;61;1048;-89
2022/03/02 22:39:41;972006.00;3.24;1682.95;23264.00;0.08;40.92;;;;;10.20;1.00;;;;;;2268120;61;1030;-88
2022/03/02 22:42:15;2010313.00;6.70;3645.52;78188.00;0.26;135.91;;;;;10.20;1.00;;;;;;2267919;61;1487;-89
2022/03/02 22:44:58;1895804.00;6.32;3412.52;81055.00;0.27;140.86;;;;;10.00;1.00;;;;;;2268022;61;1648;-89
2022/03/02 22:47:41;1317450.00;4.39;2304.08;132798.00;0.44;230.15;;;;;10.20;1.00;;;;;;2268075;61;1994;-89
2022/03/02 22:50:11;1724564.00;5.75;3073.25;205058.00;0.68;354.63;;;;;10.20;1.00;;;;;;2268069;61;1111;-89
2022/03/02 22:52:42;1108372.00;3.69;1925.40;120510.00;0.40;208.96;;;;;10.30;1.00;;;;;;2267938;61;1651;-89
2022/03/02 22:55:17;1278315.00;4.26;2232.47;165672.00;0.55;286.81;;;;;10.30;1.00;;;;;;2268017;61;1641;-88
2022/03/02 22:57:55;827947.00;2.76;1429.91;90514.00;0.30;157.20;;;;;10.30;1.00;;;;;;2267929;61;2406;-89
2022/03/02 23:00:59;415866.00;1.39;717.08;0.00;0.00;0.62;;;;;10.70;1.00;;;;;;2268005;61;1562;-90
2022/03/02 23:03:34;1054186.00;3.51;1828.68;98134.00;0.33;170.35;;;;;10.80;1.00;;;;;;2267845;61;1526;-89
2022/03/02 23:14:46;423861.00;1.41;730.83;22544.00;0.08;39.68;;;;;10.40;1.00;;;;;;2268080;61;708;-89
2022/03/02 23:20:08;672623.00;2.24;1159.80;44386.00;0.15;77.48;;;;;10.10;1.00;;;;;;2268035;61;601;-89
2022/03/02 23:25:31;2412429.00;8.04;4508.43;237793.00;0.79;410.95;;;;;10.40;1.00;;;;;;2267498;61;1362;-89
2022/03/02 23:28:11;2583523.00;8.61;4899.44;272946.00;0.91;471.41;;;;;10.60;1.00;;;;;;2267884;61;2016;-89
2022/03/02 23:30:45;2122608.00;7.08;3879.19;129433.00;0.43;224.35;;;;;10.70;1.00;;;;;;2267804;61;1556;-88
2022/03/02 23:33:20;125502736.00;418.34;80088216.00;86298.00;0.29;149.91;;;;;10.30;1.00;;;;;;2268415;61;1494;-89